createdAt,value
2018-03-24T00:01:20.253Z,15.20
2018-03-24T00:03:46.981Z,16.23
2018-03-24T00:06:13.724Z,11.25
2018-03-24T00:08:41.317Z,10.60
2018-03-24T00:11:08.090Z,14.60
2018-03-24T00:13:34.788Z,12.40
2018-03-24T00:16:01.530Z,9.35
2018-03-24T00:18:28.849Z,10.75
2018-03-24T00:20:55.642Z,9.85
2018-03-24T00:23:22.376Z,7.62
2018-03-24T00:25:49.135Z,13.23
2018-03-24T00:28:17.251Z,12.23
2018-03-24T00:30:43.957Z,10.02
2018-03-24T00:33:11.418Z,11.75
2018-03-24T00:35:38.164Z,9.55
2018-03-24T00:38:05.587Z,9.35
2018-03-24T00:40:32.346Z,10.05
2018-03-24T00:43:00.396Z,10.75
2018-03-24T00:45:28.051Z,12.80
2018-03-24T00:47:55.830Z,13.38
2018-03-24T00:50:23.147Z,12.68
2018-03-24T00:52:49.900Z,10.70
2018-03-24T00:55:16.673Z,12.90
2018-03-24T00:57:46.072Z,9.90
2018-03-24T01:00:16.345Z,13.23
2018-03-24T01:02:43.194Z,13.00
2018-03-24T01:05:09.912Z,16.12
2018-03-24T01:07:36.689Z,13.98
2018-03-24T01:10:03.579Z,16.00
2018-03-24T01:12:31.316Z,13.20
2018-03-24T01:14:58.848Z,13.55
2018-03-24T01:17:25.598Z,13.62
2018-03-24T01:19:52.377Z,21.12
2018-03-24T01:22:19.154Z,15.18
2018-03-24T01:24:45.959Z,16.08
2018-03-24T01:27:12.896Z,15.00
2018-03-24T01:29:39.628Z,13.95
2018-03-24T01:32:06.340Z,19.37
2018-03-24T01:34:33.097Z,22.62
2018-03-24T01:37:00.536Z,15.18
2018-03-24T01:39:27.286Z,16.12
2018-03-24T01:41:54.096Z,15.77
2018-03-24T01:44:20.839Z,18.55
2018-03-24T01:46:47.597Z,19.25
2018-03-24T01:49:15.058Z,18.35
2018-03-24T01:51:41.804Z,15.30
2018-03-24T01:54:08.560Z,17.30
2018-03-24T01:56:35.258Z,16.27
2018-03-24T01:59:01.973Z,14.77
2018-03-24T02:01:28.744Z,18.42
2018-03-24T02:03:55.452Z,15.20
2018-03-24T02:06:22.823Z,16.95
2018-03-24T02:08:49.615Z,13.55
2018-03-24T02:11:16.374Z,19.15
2018-03-24T02:13:43.910Z,15.63
2018-03-24T02:16:11.542Z,15.95
2018-03-24T02:18:39.035Z,20.37
2018-03-24T02:21:06.548Z,17.40
2018-03-24T02:23:33.902Z,13.48
2018-03-24T02:26:00.628Z,19.65
2018-03-24T02:28:27.331Z,19.12
2018-03-24T02:30:54.102Z,14.68
2018-03-24T02:33:20.942Z,17.17
2018-03-24T02:35:48.425Z,15.65
2018-03-24T02:38:15.874Z,16.37
2018-03-24T02:40:42.586Z,18.87
2018-03-24T02:43:10.667Z,17.45
2018-03-24T02:45:39.595Z,20.55
2018-03-24T02:48:06.369Z,17.02
2018-03-24T02:50:33.105Z,16.25
2018-03-24T02:52:59.867Z,17.20
2018-03-24T02:55:26.528Z,21.42
2018-03-24T02:57:53.247Z,19.25
2018-03-24T03:00:20.010Z,17.90
2018-03-24T03:02:46.620Z,18.17
2018-03-24T03:05:13.365Z,20.37
2018-03-24T03:07:40.104Z,16.62
2018-03-24T03:10:06.917Z,20.15
2018-03-24T03:12:33.661Z,24.58
2018-03-24T03:15:01.149Z,19.17
2018-03-24T03:17:27.895Z,20.35
2018-03-24T03:19:54.698Z,16.23
2018-03-24T03:22:21.479Z,17.70
2018-03-24T03:24:48.265Z,18.45
2018-03-24T03:27:16.960Z,17.95
2018-03-24T03:29:43.648Z,18.95
2018-03-24T03:32:11.329Z,17.67
2018-03-24T03:34:38.757Z,21.70
2018-03-24T03:37:05.480Z,21.75
2018-03-24T03:39:32.308Z,27.08
2018-03-24T03:41:59.015Z,18.85
2018-03-24T03:44:25.766Z,21.23
2018-03-24T03:46:52.466Z,22.00
2018-03-24T03:49:19.361Z,20.92
2018-03-24T03:51:46.082Z,22.33
2018-03-24T03:54:12.885Z,21.30
2018-03-24T03:56:39.559Z,23.67
2018-03-24T03:59:06.274Z,19.40
2018-03-24T04:01:33.028Z,23.95
2018-03-24T04:03:59.663Z,19.55
2018-03-24T04:06:26.395Z,24.25
2018-03-24T04:08:53.061Z,22.02
2018-03-24T04:11:19.816Z,24.12
2018-03-24T04:13:46.476Z,22.30
2018-03-24T04:16:13.879Z,23.27
2018-03-24T04:18:40.558Z,23.85
2018-03-24T04:21:07.281Z,22.02
2018-03-24T04:23:34.516Z,19.45
2018-03-24T04:26:01.955Z,21.15
2018-03-24T04:28:28.603Z,19.67
2018-03-24T04:30:55.323Z,25.45
2018-03-24T04:33:22.022Z,23.65
2018-03-24T04:35:49.433Z,21.45
2018-03-24T04:38:16.179Z,21.33
2018-03-24T04:40:42.876Z,23.50
2018-03-24T04:43:09.550Z,22.00
2018-03-24T04:45:36.307Z,23.27
2018-03-24T04:48:03.090Z,24.65
2018-03-24T04:50:29.725Z,25.00
2018-03-24T04:52:56.431Z,22.70
2018-03-24T04:55:23.116Z,23.42
2018-03-24T04:57:50.818Z,25.62
2018-03-24T05:00:17.524Z,19.73
2018-03-24T05:02:44.274Z,19.62
2018-03-24T05:05:10.984Z,30.25
2018-03-24T05:07:37.676Z,24.52
2018-03-24T05:10:04.313Z,21.83
2018-03-24T05:12:32.561Z,24.10
2018-03-24T05:14:59.272Z,25.10
2018-03-24T05:17:25.903Z,20.83
2018-03-24T05:19:52.554Z,25.70
2018-03-24T05:22:20.254Z,24.08
2018-03-24T05:24:46.944Z,25.25
2018-03-24T05:27:13.644Z,21.48
2018-03-24T05:29:40.345Z,32.88
2018-03-24T05:32:07.074Z,24.17
2018-03-24T05:34:33.756Z,31.60
2018-03-24T05:37:00.539Z,28.55
2018-03-24T05:39:27.234Z,28.38
2018-03-24T05:41:54.704Z,27.77
2018-03-24T05:44:22.134Z,25.02
2018-03-24T05:46:48.833Z,24.90
2018-03-24T05:49:15.556Z,29.40
2018-03-24T05:51:42.219Z,24.35
2018-03-24T05:54:08.959Z,25.67
2018-03-24T05:56:35.691Z,31.50
2018-03-24T05:59:02.465Z,32.10
2018-03-24T06:01:29.172Z,26.05
2018-03-24T06:03:55.904Z,25.90
2018-03-24T06:06:22.646Z,22.65
2018-03-24T06:08:49.278Z,25.70
2018-03-24T06:11:15.981Z,27.37
2018-03-24T06:13:42.677Z,29.73
2018-03-24T06:16:10.361Z,28.23
2018-03-24T06:18:37.814Z,26.37
2018-03-24T06:21:04.470Z,32.53
2018-03-24T06:23:31.210Z,31.77
2018-03-24T06:25:57.939Z,30.65
2018-03-24T06:28:24.702Z,27.80
2018-03-24T06:30:57.959Z,28.98
2018-03-24T06:33:24.703Z,29.65
2018-03-24T06:35:51.381Z,35.03
2018-03-24T06:38:18.027Z,33.90
2018-03-24T06:40:44.642Z,28.40
2018-03-24T06:43:11.508Z,31.45
2018-03-24T06:45:38.152Z,24.45
2018-03-24T06:48:04.769Z,26.52
2018-03-24T06:50:32.148Z,29.87
2018-03-24T06:52:59.536Z,31.40
2018-03-24T06:55:26.207Z,31.20
2018-03-24T06:57:52.970Z,31.02
2018-03-24T07:00:19.663Z,32.63
2018-03-24T07:02:46.318Z,31.42
2018-03-24T07:05:12.984Z,27.33
2018-03-24T07:07:39.680Z,30.73
2018-03-24T07:10:06.393Z,30.67
2018-03-24T07:12:33.048Z,31.33
2018-03-24T07:14:59.816Z,29.33
2018-03-24T07:17:26.550Z,28.98
2018-03-24T07:19:53.895Z,34.63
2018-03-24T07:22:20.586Z,28.12
2018-03-24T07:24:47.859Z,30.35
2018-03-24T07:27:14.518Z,31.30
2018-03-24T07:29:41.239Z,35.55
2018-03-24T07:32:07.846Z,33.72
2018-03-24T07:34:34.493Z,27.08
2018-03-24T07:37:02.157Z,29.95
2018-03-24T07:39:28.923Z,28.17
2018-03-24T07:41:55.614Z,29.85
2018-03-24T07:44:22.412Z,28.05
2018-03-24T07:46:49.197Z,29.30
2018-03-24T07:49:16.716Z,28.80
2018-03-24T07:51:43.468Z,28.25
2018-03-24T07:54:10.256Z,28.77
2018-03-24T07:56:36.970Z,30.98
2018-03-24T07:59:03.790Z,28.42
2018-03-24T08:01:30.580Z,31.62
2018-03-24T08:03:57.285Z,31.23
2018-03-24T08:06:24.113Z,30.80
2018-03-24T08:08:50.818Z,32.63
2018-03-24T08:11:17.678Z,29.70
2018-03-24T08:13:44.480Z,25.73
2018-03-24T08:16:11.244Z,26.92
2018-03-24T08:18:38.093Z,26.08
2018-03-24T08:21:05.806Z,28.40
2018-03-24T08:23:33.037Z,26.48
2018-03-24T08:25:59.817Z,27.75
2018-03-24T08:28:26.680Z,25.30
2018-03-24T08:30:53.540Z,25.80
2018-03-24T08:33:20.330Z,24.20
2018-03-24T08:35:47.165Z,25.47
2018-03-24T08:38:14.683Z,26.60
2018-03-24T08:40:41.525Z,26.67
2018-03-24T08:43:08.376Z,26.83
2018-03-24T08:45:35.173Z,25.10
2018-03-24T08:48:02.884Z,22.10
2018-03-24T08:50:29.752Z,23.90
2018-03-24T08:52:56.560Z,24.67
2018-03-24T08:55:23.384Z,24.10
2018-03-24T08:57:50.265Z,23.77
2018-03-24T09:00:17.163Z,25.50
2018-03-24T09:02:44.705Z,20.23
2018-03-24T09:05:13.343Z,24.00
2018-03-24T09:07:40.163Z,21.47
2018-03-24T09:10:06.997Z,25.30
2018-03-24T09:12:34.597Z,24.10
2018-03-24T09:15:01.421Z,25.00
2018-03-24T09:17:28.213Z,20.40
2018-03-24T09:19:54.998Z,18.67
2018-03-24T09:22:21.841Z,19.57
2018-03-24T09:24:49.675Z,23.00
2018-03-24T09:27:16.508Z,20.73
2018-03-24T09:29:43.306Z,23.80
2018-03-24T09:32:10.059Z,20.37
2018-03-24T09:34:37.661Z,19.83
2018-03-24T09:37:05.455Z,19.17
2018-03-24T09:39:32.526Z,19.60
2018-03-24T09:41:59.534Z,20.43
2018-03-24T09:44:27.204Z,19.30
2018-03-24T09:46:54.171Z,20.50
2018-03-24T09:49:21.119Z,18.23
2018-03-24T09:51:50.361Z,16.43
2018-03-24T09:54:17.462Z,19.63
2018-03-24T09:56:44.298Z,18.90
2018-03-24T09:59:12.218Z,18.00
2018-03-24T10:01:39.068Z,17.20
2018-03-24T10:04:06.081Z,18.27
2018-03-24T10:06:34.018Z,16.50
2018-03-24T10:09:01.107Z,14.27
2018-03-24T10:11:27.966Z,16.90
2018-03-24T10:13:54.742Z,16.67
2018-03-24T10:16:21.480Z,17.27
2018-03-24T10:18:48.339Z,15.57
2018-03-24T10:24:26.429Z,16.47
2018-03-24T10:26:53.349Z,18.60
2018-03-24T10:29:20.205Z,16.10
2018-03-24T10:31:47.963Z,12.20
2018-03-24T10:34:14.889Z,10.07
2018-03-24T10:36:41.788Z,13.20
2018-03-24T10:39:09.341Z,12.73
2018-03-24T10:41:36.214Z,11.30
2018-03-24T10:44:03.073Z,11.37
2018-03-24T10:46:29.867Z,12.57
2018-03-24T10:48:56.904Z,12.10
2018-03-24T10:51:23.917Z,12.00
2018-03-24T10:53:51.683Z,10.87
2018-03-24T10:56:19.734Z,11.10
2018-03-24T10:58:46.625Z,9.80
2018-03-24T11:01:14.117Z,9.07
2018-03-24T11:03:41.558Z,10.10
2018-03-24T11:06:08.385Z,10.60
2018-03-24T11:08:36.194Z,8.63
2018-03-24T11:11:04.283Z,10.47
2018-03-24T11:13:31.944Z,9.63
2018-03-24T11:15:58.813Z,10.27
2018-03-24T11:18:26.700Z,11.23
2018-03-24T11:20:54.157Z,8.17
2018-03-24T11:23:36.574Z,7.70
2018-03-24T11:26:03.523Z,8.80
2018-03-24T11:28:30.310Z,7.23
2018-03-24T11:30:57.299Z,7.73
2018-03-24T11:33:25.152Z,8.13
2018-03-24T11:35:52.350Z,6.67
2018-03-24T11:38:19.347Z,6.70
2018-03-24T11:40:46.687Z,7.93
2018-03-24T11:43:14.136Z,7.43
2018-03-24T11:45:41.138Z,7.30
2018-03-24T11:48:07.949Z,8.23
2018-03-24T11:50:34.819Z,9.37
2018-03-24T11:53:02.311Z,8.07
2018-03-24T11:55:29.380Z,7.63
2018-03-24T11:57:56.205Z,9.80
2018-03-24T12:00:24.313Z,8.70
2018-03-24T12:02:51.257Z,8.57
2018-03-24T12:05:20.323Z,8.33
2018-03-24T12:07:47.208Z,9.00
2018-03-24T12:10:14.590Z,7.13
2018-03-24T12:12:41.407Z,8.40
2018-03-24T12:15:10.513Z,7.57
2018-03-24T12:17:37.652Z,8.27
2018-03-24T12:20:04.550Z,7.80
2018-03-24T12:22:32.399Z,6.60
2018-03-24T12:24:59.201Z,8.17
2018-03-24T12:27:26.857Z,8.03
2018-03-24T12:29:55.059Z,6.30
2018-03-24T12:32:23.368Z,6.60
2018-03-24T12:34:51.393Z,7.63
2018-03-24T12:37:19.035Z,7.17
2018-03-24T12:39:46.116Z,7.43
2018-03-24T12:42:13.103Z,7.90
2018-03-24T12:44:39.988Z,10.13
2018-03-24T12:47:07.000Z,7.10
2018-03-24T12:49:34.074Z,7.10
2018-03-24T12:52:01.564Z,6.67
2018-03-24T12:54:28.532Z,6.77
2018-03-24T12:56:56.680Z,6.70
2018-03-24T12:59:25.146Z,6.43
2018-03-24T13:01:53.351Z,6.20
2018-03-24T13:04:24.415Z,7.20
2018-03-24T13:06:53.268Z,6.53
2018-03-24T13:09:21.239Z,7.43
2018-03-24T13:11:48.650Z,6.33
2018-03-24T13:14:18.559Z,6.93
2018-03-24T13:16:47.098Z,6.47
2018-03-24T13:19:14.206Z,6.33
2018-03-24T13:21:41.764Z,6.23
2018-03-24T13:24:08.575Z,6.00
2018-03-24T13:26:35.621Z,6.20
2018-03-24T13:29:02.583Z,6.90
2018-03-24T13:31:29.899Z,5.30
2018-03-24T13:33:59.101Z,7.90
2018-03-24T13:36:25.946Z,5.83
2018-03-24T13:38:53.929Z,5.67
2018-03-24T13:41:22.107Z,5.80
2018-03-24T13:43:49.015Z,7.10
2018-03-24T13:46:16.180Z,5.67
2018-03-24T13:48:46.769Z,7.00
2018-03-24T13:51:13.644Z,5.30
2018-03-24T13:53:46.705Z,6.83
2018-03-24T13:56:13.703Z,7.30
2018-03-24T13:58:40.770Z,6.27
2018-03-24T14:01:23.772Z,6.70
2018-03-24T14:03:53.167Z,6.00
2018-03-24T14:06:21.840Z,5.53
2018-03-24T14:08:53.735Z,6.17
2018-03-24T14:41:56.925Z,7.03
2018-03-24T15:53:14.484Z,7.10
2018-03-24T19:25:40.431Z,14.48
2018-03-24T21:26:02.811Z,14.98
2018-03-24T21:28:45.411Z,12.20
2018-03-24T21:31:14.083Z,15.50
2018-03-24T21:33:42.723Z,15.85
2018-03-24T21:36:11.161Z,14.63
2018-03-24T21:38:41.659Z,17.42
2018-03-24T21:43:54.349Z,15.90
2018-03-24T21:46:23.816Z,15.68
2018-03-24T21:48:53.142Z,20.70
2018-03-24T21:51:22.759Z,15.77
2018-03-24T21:53:51.369Z,17.95
2018-03-24T21:56:25.020Z,18.52
2018-03-24T21:58:53.663Z,14.90
2018-03-24T22:01:22.245Z,20.48
2018-03-24T22:03:51.385Z,16.70
2018-03-24T22:06:22.732Z,22.23
2018-03-24T22:08:51.256Z,20.65
2018-03-24T22:11:20.655Z,19.65
2018-03-24T22:13:52.235Z,17.25
2018-03-24T22:16:21.418Z,17.60
2018-03-24T22:18:50.813Z,15.77
2018-03-24T22:21:20.997Z,22.37
2018-03-24T22:23:50.349Z,18.55
2018-03-24T22:26:19.422Z,25.00
2018-03-24T22:28:49.657Z,21.83
2018-03-24T22:31:20.294Z,16.62
